Time;durP1;ratioP1;P1;durP2;ratioP2;P2;SDS_P1;SDS_P2;PMS_P1;PMS_P2;Temp;Humidity;BMP_temperature;BMP_pressure;BME280_temperature;BME280_humidity;BME280_pressure;Samples;Min_cycle;Max_cycle;Signal;HPM_P1;HPM_P2
2021/01/29 00:04:50;;;;;;;9.60;7.50;;;;;;;;;;4940763;28;20724;31
2021/01/29 00:07:16;;;;;;;10.00;7.53;;;;;;;;;;4174158;34;20090;-57
2021/01/29 00:09:42;;;;;;;9.75;7.93;;;;;;;;;;4178352;34;20185;-57
2021/01/29 00:12:08;;;;;;;9.30;7.40;;;;;;;;;;4192231;34;20133;-57
2021/01/29 00:14:34;;;;;;;11.12;8.25;;;;;;;;;;4192001;34;20129;-58
2021/01/29 00:17:00;;;;;;;8.82;7.32;;;;;;;;;;4192093;34;20117;-57
2021/01/29 00:19:26;;;;;;;9.48;8.25;;;;;;;;;;4192112;34;20140;-58
2021/01/29 00:21:52;;;;;;;12.55;7.93;;;;;;;;;;4191977;34;20137;-59
2021/01/29 00:24:18;;;;;;;9.75;8.10;;;;;;;;;;4192046;34;20596;-57
2021/01/29 00:26:43;;;;;;;11.70;8.35;;;;;;;;;;4191977;34;20117;-57
2021/01/29 00:29:09;;;;;;;9.45;7.60;;;;;;;;;;4191079;34;20118;-57
2021/01/29 00:31:37;;;;;;;8.23;7.03;;;;;;;;;;4191675;34;20114;-58
2021/01/29 00:34:04;;;;;;;8.95;7.18;;;;;;;;;;4191759;34;20098;-58
2021/01/29 00:36:30;;;;;;;9.00;7.82;;;;;;;;;;4191952;34;20105;-57
2021/01/29 00:38:56;;;;;;;8.88;7.07;;;;;;;;;;4191880;34;20191;-57
2021/01/29 00:41:23;;;;;;;8.35;6.97;;;;;;;;;;4191864;34;20122;-58
2021/01/29 00:43:53;;;;;;;7.97;7.10;;;;;;;;;;4191958;34;20133;-58
2021/01/29 00:46:19;;;;;;;10.02;7.47;;;;;;;;;;4191939;34;20106;-57
2021/01/29 00:48:46;;;;;;;10.45;6.97;;;;;;;;;;4191949;34;20122;-57
2021/01/29 00:51:12;;;;;;;8.82;7.47;;;;;;;;;;4178963;34;20151;-58
2021/01/29 00:53:38;;;;;;;9.45;7.10;;;;;;;;;;4191467;34;20118;-58
2021/01/29 00:56:04;;;;;;;7.90;6.90;;;;;;;;;;4191671;34;20121;-57
2021/01/29 00:58:30;;;;;;;8.15;7.30;;;;;;;;;;4191811;34;20130;-58
2021/01/29 01:00:56;;;;;;;9.25;7.37;;;;;;;;;;4191593;34;20241;-59
2021/01/29 01:03:22;;;;;;;10.23;7.20;;;;;;;;;;4191715;34;20137;-58
2021/01/29 01:05:48;;;;;;;9.48;7.37;;;;;;;;;;4191275;34;20197;-57
2021/01/29 01:08:14;;;;;;;8.52;7.65;;;;;;;;;;4191693;34;20519;-58
2021/01/29 01:10:40;;;;;;;8.30;7.32;;;;;;;;;;4178835;34;20181;-57
2021/01/29 01:13:06;;;;;;;9.30;7.43;;;;;;;;;;4191652;34;20518;-58
2021/01/29 01:15:32;;;;;;;11.20;6.80;;;;;;;;;;4191520;34;20116;-57
2021/01/29 01:18:01;;;;;;;7.70;6.90;;;;;;;;;;4191677;34;20529;-57
2021/01/29 01:20:28;;;;;;;9.88;7.35;;;;;;;;;;4191505;34;20122;-57
2021/01/29 01:22:54;;;;;;;9.10;7.20;;;;;;;;;;4191622;34;20133;-57
2021/01/29 01:25:20;;;;;;;9.10;7.30;;;;;;;;;;4191428;34;20117;-57
2021/01/29 01:27:46;;;;;;;9.70;7.05;;;;;;;;;;4191584;34;20140;-58
2021/01/29 01:30:15;;;;;;;15.63;8.02;;;;;;;;;;4191437;34;20122;-58
2021/01/29 01:32:41;;;;;;;8.05;7.25;;;;;;;;;;4191659;34;20523;-59
2021/01/29 01:35:08;;;;;;;8.45;7.40;;;;;;;;;;4191434;34;20114;-58
2021/01/29 01:37:34;;;;;;;10.65;7.62;;;;;;;;;;4191631;34;20106;-57
2021/01/29 01:39:59;;;;;;;9.95;6.70;;;;;;;;;;4178580;34;20218;-57
2021/01/29 01:42:25;;;;;;;10.70;6.95;;;;;;;;;;4191489;34;20183;-57
2021/01/29 01:44:51;;;;;;;8.90;6.70;;;;;;;;;;4191273;34;20225;-57
2021/01/29 01:47:50;;;;;;;7.60;6.82;;;;;;;;;;4191456;34;20130;-58
2021/01/29 01:50:28;;;;;;;9.63;7.28;;;;;;;;;;4190214;34;20141;-57
2021/01/29 01:52:54;;;;;;;10.35;7.20;;;;;;;;;;4191286;34;20129;-58
2021/01/29 01:55:21;;;;;;;9.35;7.47;;;;;;;;;;4167264;34;20128;-58
2021/01/29 01:57:47;;;;;;;9.10;7.70;;;;;;;;;;4178626;34;20110;-58
2021/01/29 02:00:16;;;;;;;12.13;7.35;;;;;;;;;;4178690;34;20310;-57
2021/01/29 02:02:45;;;;;;;10.20;7.53;;;;;;;;;;4167458;34;20106;-57
2021/01/29 02:05:29;;;;;;;8.98;6.82;;;;;;;;;;4166159;34;20126;-58
2021/01/29 02:08:06;;;;;;;9.18;6.87;;;;;;;;;;4191203;34;20221;-57
2021/01/29 02:10:32;;;;;;;8.68;7.18;;;;;;;;;;4167440;34;20218;-58
2021/01/29 02:12:58;;;;;;;7.78;6.97;;;;;;;;;;4191110;34;20534;-58
2021/01/29 02:15:26;;;;;;;8.30;6.47;;;;;;;;;;4190999;34;20109;-58
2021/01/29 02:18:02;;;;;;;8.68;6.70;;;;;;;;;;4191121;34;20102;-56
2021/01/29 02:20:43;;;;;;;7.57;6.22;;;;;;;;;;4167539;34;20210;-56
2021/01/29 02:23:33;;;;;;;9.20;6.85;;;;;;;;;;4191153;34;20581;-60
2021/01/29 02:26:08;;;;;;;8.68;6.65;;;;;;;;;;4191380;34;20090;-58
2021/01/29 02:28:59;;;;;;;8.60;6.97;;;;;;;;;;4191100;34;20133;-61
2021/01/29 02:32:10;;;;;;;9.52;7.82;;;;;;;;;;4176868;34;20565;-60
2021/01/29 02:34:59;;;;;;;9.65;7.70;;;;;;;;;;4188921;34;20125;-60
2021/01/29 02:37:31;;;;;;;10.00;7.87;;;;;;;;;;4178215;34;20102;-60
2021/01/29 02:40:56;;;;;;;10.20;7.55;;;;;;;;;;4190437;34;20526;-59
2021/01/29 02:43:34;;;;;;;8.40;6.93;;;;;;;;;;4170432;34;20114;-60
2021/01/29 02:46:09;;;;;;;9.13;7.82;;;;;;;;;;4190779;34;20100;-64
2021/01/29 02:48:52;;;;;;;9.87;7.20;;;;;;;;;;4190749;34;20125;-60
2021/01/29 02:51:28;;;;;;;10.02;7.32;;;;;;;;;;4232950;28;20109;-60
2021/01/29 02:54:20;;;;;;;;;;;;;;;;;;4189945;34;20205;-62
2021/01/29 02:56:52;;;;;;;12.52;7.43;;;;;;;;;;4176762;34;19978;-62
2021/01/29 02:59:25;;;;;;;8.25;6.68;;;;;;;;;;4176161;34;20533;-64
2021/01/29 03:01:55;;;;;;;11.65;7.43;;;;;;;;;;4175707;34;20118;-62
2021/01/29 03:04:32;;;;;;;8.25;7.35;;;;;;;;;;4177196;34;20186;-62
2021/01/29 03:07:01;;;;;;;9.93;7.25;;;;;;;;;;4164486;34;20129;-65
2021/01/29 03:09:51;;;;;;;9.75;6.65;;;;;;;;;;4175781;34;20205;-61
2021/01/29 03:12:23;;;;;;;10.63;7.18;;;;;;;;;;4175790;34;20123;-61
2021/01/29 03:14:53;;;;;;;9.85;6.53;;;;;;;;;;4175846;34;20119;-60
2021/01/29 03:17:26;;;;;;;14.43;7.12;;;;;;;;;;4165740;34;20122;-61
2021/01/29 03:20:07;;;;;;;7.95;6.47;;;;;;;;;;4177442;34;20125;-67
2021/01/29 03:22:42;;;;;;;8.38;7.10;;;;;;;;;;4177476;34;20126;-65
2021/01/29 03:25:15;;;;;;;7.50;6.67;;;;;;;;;;4166353;34;20106;-63
2021/01/29 03:27:46;;;;;;;8.73;7.82;;;;;;;;;;4177538;34;21037;-64
2021/01/29 03:30:17;;;;;;;7.30;6.15;;;;;;;;;;4166196;34;20195;-63
2021/01/29 03:32:45;;;;;;;10.48;7.55;;;;;;;;;;4177249;34;20555;-63
2021/01/29 03:35:26;;;;;;;8.48;6.78;;;;;;;;;;4166309;34;20113;-61
2021/01/29 03:38:14;;;;;;;9.27;7.68;;;;;;;;;;4177395;34;20326;-63
2021/01/29 03:40:40;;;;;;;11.32;7.62;;;;;;;;;;4177276;34;20149;-64
2021/01/29 03:43:57;;;;;;;9.18;7.37;;;;;;;;;;4173299;34;20454;-64
2021/01/29 03:46:38;;;;;;;10.10;7.07;;;;;;;;;;4190063;34;20214;-63
2021/01/29 03:49:36;;;;;;;9.10;7.40;;;;;;;;;;4192475;34;20518;-60
2021/01/29 03:52:10;;;;;;;9.25;6.50;;;;;;;;;;4202890;34;20113;-59
2021/01/29 03:54:45;;;;;;;7.35;6.57;;;;;;;;;;4193526;34;20124;-59
2021/01/29 03:57:19;;;;;;;9.80;6.97;;;;;;;;;;4206517;34;20101;-60
2021/01/29 04:00:04;;;;;;;11.53;6.90;;;;;;;;;;4206096;34;20112;-60
2021/01/29 04:02:35;;;;;;;12.48;7.00;;;;;;;;;;4206108;34;20217;-62
2021/01/29 04:05:20;;;;;;;12.60;7.37;;;;;;;;;;4204794;34;20156;-59
2021/01/29 04:07:56;;;;;;;12.27;7.03;;;;;;;;;;4205033;34;20109;-59
2021/01/29 04:10:29;;;;;;;12.88;8.57;;;;;;;;;;4192957;34;20155;-60
2021/01/29 04:13:14;;;;;;;12.27;7.22;;;;;;;;;;4204600;34;20454;-60
2021/01/29 04:15:53;;;;;;;12.48;6.80;;;;;;;;;;4204570;34;20684;-59
2021/01/29 04:18:23;;;;;;;9.18;7.07;;;;;;;;;;4190974;34;20113;-60
2021/01/29 04:20:55;;;;;;;7.80;6.53;;;;;;;;;;4192245;34;20118;-60
2021/01/29 04:23:24;;;;;;;9.55;6.75;;;;;;;;;;4192146;34;20105;-60
2021/01/29 04:25:55;;;;;;;10.68;6.85;;;;;;;;;;4168263;34;20114;-60
2021/01/29 04:28:21;;;;;;;9.77;7.18;;;;;;;;;;4179295;34;20669;-59
2021/01/29 04:30:50;;;;;;;9.50;6.70;;;;;;;;;;4179237;34;20114;-59
2021/01/29 04:33:20;;;;;;;10.13;6.68;;;;;;;;;;4167955;34;20169;-60
2021/01/29 04:35:45;;;;;;;12.73;6.65;;;;;;;;;;4179315;34;20112;-59
2021/01/29 04:38:21;;;;;;;11.10;6.97;;;;;;;;;;4191864;34;20112;-59
2021/01/29 04:40:54;;;;;;;9.15;6.87;;;;;;;;;;4168341;34;20557;-60
2021/01/29 04:43:46;;;;;;;10.60;6.87;;;;;;;;;;4186848;34;20193;-59
2021/01/29 04:46:33;;;;;;;10.45;7.03;;;;;;;;;;4205737;34;20181;-59
2021/01/29 04:49:04;;;;;;;9.73;6.78;;;;;;;;;;4205582;34;20121;-58
2021/01/29 04:51:58;;;;;;;10.82;7.53;;;;;;;;;;4205297;34;20225;-60
2021/01/29 04:54:48;;;;;;;9.88;6.95;;;;;;;;;;4205877;34;20205;-60
2021/01/29 04:57:25;;;;;;;10.32;6.95;;;;;;;;;;4205474;34;20513;-63
2021/01/29 05:00:26;;;;;;;13.10;6.72;;;;;;;;;;4205510;34;20093;-65
2021/01/29 05:03:08;;;;;;;12.50;7.15;;;;;;;;;;4189540;34;20560;-64
2021/01/29 05:05:43;;;;;;;10.05;7.35;;;;;;;;;;4192489;34;20205;-66
2021/01/29 05:08:15;;;;;;;11.25;6.57;;;;;;;;;;4205578;34;20102;-63
2021/01/29 05:10:53;;;;;;;11.27;7.47;;;;;;;;;;4205368;34;20140;-67
2021/01/29 05:13:19;;;;;;;10.20;7.18;;;;;;;;;;4204267;34;20093;-66
2021/01/29 05:16:03;;;;;;;10.10;7.53;;;;;;;;;;4205431;34;20117;-67
2021/01/29 05:18:53;;;;;;;12.20;7.30;;;;;;;;;;4205376;34;20544;-65
2021/01/29 05:21:41;;;;;;;9.68;6.50;;;;;;;;;;4192501;34;20462;-64
2021/01/29 05:24:43;;;;;;;13.90;6.72;;;;;;;;;;4192737;34;20232;-63
2021/01/29 05:27:47;;;;;;;11.73;7.30;;;;;;;;;;4204215;34;20204;-63
2021/01/29 05:30:21;;;;;;;10.07;7.35;;;;;;;;;;4205349;34;20114;-61
2021/01/29 05:32:50;;;;;;;10.32;7.37;;;;;;;;;;4205075;34;20114;-60
2021/01/29 05:35:34;;;;;;;13.40;7.68;;;;;;;;;;4205051;34;20116;-60
2021/01/29 05:38:09;;;;;;;11.63;8.00;;;;;;;;;;4205399;34;20126;-60
2021/01/29 05:40:38;;;;;;;13.50;6.90;;;;;;;;;;4192284;34;20117;-60
2021/01/29 05:43:10;;;;;;;13.30;6.87;;;;;;;;;;4203585;34;20197;-60
2021/01/29 05:45:39;;;;;;;10.82;7.05;;;;;;;;;;4203803;34;20203;-58
2021/01/29 05:48:11;;;;;;;9.48;7.53;;;;;;;;;;4205056;34;20117;-60
2021/01/29 05:50:55;;;;;;;13.57;8.45;;;;;;;;;;4204762;34;20118;-60
2021/01/29 05:53:54;;;;;;;11.60;7.50;;;;;;;;;;4204782;34;20129;-60
2021/01/29 05:56:45;;;;;;;12.43;7.90;;;;;;;;;;4192089;34;20498;-59
2021/01/29 05:59:45;;;;;;;12.40;8.07;;;;;;;;;;4204968;34;20102;-59
2021/01/29 06:02:38;;;;;;;13.13;8.77;;;;;;;;;;4204762;34;20105;-59
2021/01/29 06:05:20;;;;;;;11.35;7.15;;;;;;;;;;4191907;34;20141;-59
2021/01/29 06:08:00;;;;;;;10.50;7.60;;;;;;;;;;4203759;34;20133;-60
2021/01/29 06:11:03;;;;;;;12.05;8.00;;;;;;;;;;4203355;34;20102;-60
2021/01/29 06:13:41;;;;;;;10.00;7.60;;;;;;;;;;4205049;34;20163;-60
2021/01/29 06:16:23;;;;;;;11.82;8.68;;;;;;;;;;4191995;34;20502;-61
2021/01/29 06:19:20;;;;;;;14.13;9.45;;;;;;;;;;4204841;34;20253;-61
2021/01/29 06:22:06;;;;;;;11.63;7.70;;;;;;;;;;4204556;34;20532;-60
2021/01/29 06:24:44;;;;;;;;;;;;;;;;;;4203650;34;20121;-60
2021/01/29 06:27:47;;;;;;;14.00;8.10;;;;;;;;;;4204830;34;19973;-61
2021/01/29 06:30:22;;;;;;;13.52;8.88;;;;;;;;;;4204617;34;20205;-60
2021/01/29 06:33:14;;;;;;;15.25;8.60;;;;;;;;;;4204867;34;20204;-60
2021/01/29 06:35:47;;;;;;;17.30;9.10;;;;;;;;;;4190557;34;20533;-59
2021/01/29 06:38:31;;;;;;;14.65;9.23;;;;;;;;;;4203415;34;20098;-59
2021/01/29 06:41:29;;;;;;;15.20;9.07;;;;;;;;;;4204636;34;20113;-59
2021/01/29 06:44:09;;;;;;;19.95;9.55;;;;;;;;;;4203380;34;20121;-59
2021/01/29 06:47:25;;;;;;;14.00;10.30;;;;;;;;;;4203211;34;20128;-59
2021/01/29 06:49:54;;;;;;;13.67;8.90;;;;;;;;;;4174865;34;20218;-60
2021/01/29 06:53:08;;;;;;;11.10;8.20;;;;;;;;;;4173846;34;20182;-60
2021/01/29 06:55:42;;;;;;;9.60;7.35;;;;;;;;;;4183556;34;20137;-60
2021/01/29 06:58:25;;;;;;;10.82;8.23;;;;;;;;;;4203401;34;20113;-60
2021/01/29 07:01:17;;;;;;;12.98;7.57;;;;;;;;;;4191640;34;20446;-60
2021/01/29 07:04:13;;;;;;;11.35;8.05;;;;;;;;;;4204808;34;20193;-60
2021/01/29 07:07:16;;;;;;;15.70;9.60;;;;;;;;;;4204319;34;20117;-60
2021/01/29 07:10:00;;;;;;;13.10;8.27;;;;;;;;;;4204448;34;20515;-60
2021/01/29 07:12:50;;;;;;;13.73;8.35;;;;;;;;;;4202947;34;20726;-60
2021/01/29 07:16:01;;;;;;;12.30;7.12;;;;;;;;;;4203122;34;20121;-60
2021/01/29 07:18:33;;;;;;;15.55;7.55;;;;;;;;;;4182827;34;20124;-60
2021/01/29 07:21:17;;;;;;;10.85;6.97;;;;;;;;;;4204325;34;20351;-60
2021/01/29 07:23:51;;;;;;;10.48;7.05;;;;;;;;;;4191763;34;20138;-60
2021/01/29 07:26:54;;;;;;;8.88;6.97;;;;;;;;;;4204252;34;20113;-60
2021/01/29 07:29:49;;;;;;;15.77;7.45;;;;;;;;;;4204313;34;20518;-60
2021/01/29 07:32:30;;;;;;;10.05;7.57;;;;;;;;;;4202926;34;20225;-60
2021/01/29 07:35:11;;;;;;;17.12;7.25;;;;;;;;;;4191261;34;20547;-60
2021/01/29 07:37:59;;;;;;;10.48;6.78;;;;;;;;;;4203023;34;20140;-60
2021/01/29 07:40:28;;;;;;;11.50;7.70;;;;;;;;;;4198249;34;20086;-59
2021/01/29 07:43:19;;;;;;;10.55;7.07;;;;;;;;;;4204271;34;20109;-60
2021/01/29 07:46:00;;;;;;;9.77;7.15;;;;;;;;;;4203924;34;20483;-60
2021/01/29 07:48:46;;;;;;;13.50;7.57;;;;;;;;;;4204108;34;20102;-60
2021/01/29 07:51:40;;;;;;;8.23;6.95;;;;;;;;;;4202608;34;20532;-60
2021/01/29 07:54:43;;;;;;;14.57;8.27;;;;;;;;;;4202614;34;20208;-60
2021/01/29 07:57:24;;;;;;;13.48;7.95;;;;;;;;;;4203735;34;20141;-60
2021/01/29 08:00:18;;;;;;;11.77;7.37;;;;;;;;;;4190928;34;20094;-60
2021/01/29 08:03:37;;;;;;;15.93;7.35;;;;;;;;;;4203791;34;20121;-60
2021/01/29 08:06:09;;;;;;;13.27;7.68;;;;;;;;;;4173049;34;20177;-59
2021/01/29 08:08:57;;;;;;;15.02;8.25;;;;;;;;;;4206302;34;20214;-61
2021/01/29 08:11:23;;;;;;;14.02;8.45;;;;;;;;;;4204621;34;20178;-61
2021/01/29 08:13:59;;;;;;;14.18;7.80;;;;;;;;;;4193288;34;20120;-61
2021/01/29 08:16:31;;;;;;;11.05;8.18;;;;;;;;;;4205989;34;20212;-62
2021/01/29 08:19:11;;;;;;;9.55;7.45;;;;;;;;;;4206046;34;20126;-59
2021/01/29 08:22:12;;;;;;;13.98;8.23;;;;;;;;;;4193096;34;20144;-60
2021/01/29 08:24:57;;;;;;;12.05;7.47;;;;;;;;;;4205865;34;20189;-60
2021/01/29 08:27:38;;;;;;;13.77;7.30;;;;;;;;;;4206112;34;20122;-60
2021/01/29 08:30:28;;;;;;;14.60;8.18;;;;;;;;;;4205907;34;20121;-60
2021/01/29 08:33:48;;;;;;;17.15;8.43;;;;;;;;;;4205960;34;20205;-61
2021/01/29 08:36:31;;;;;;;18.90;11.50;;;;;;;;;;4162010;34;20549;-61
2021/01/29 08:39:16;;;;;;;13.27;7.62;;;;;;;;;;4151030;34;20102;-60
2021/01/29 08:42:05;;;;;;;14.50;8.27;;;;;;;;;;4179406;34;20205;-60
2021/01/29 08:44:57;;;;;;;16.85;9.02;;;;;;;;;;4192006;34;20133;-60
2021/01/29 08:47:40;;;;;;;15.30;7.25;;;;;;;;;;4168688;34;20148;-61
2021/01/29 08:50:25;;;;;;;11.50;7.78;;;;;;;;;;4165018;34;20455;-58
2021/01/29 08:53:15;;;;;;;17.92;8.02;;;;;;;;;;4177687;34;20125;-58
2021/01/29 08:56:06;;;;;;;12.95;8.00;;;;;;;;;;4177790;34;20670;-60
2021/01/29 08:58:54;;;;;;;11.35;7.03;;;;;;;;;;4178214;34;20123;-60
2021/01/29 09:01:51;;;;;;;13.55;7.40;;;;;;;;;;4177379;34;20140;-63
2021/01/29 09:04:20;;;;;;;15.65;8.70;;;;;;;;;;4179585;34;20125;-60
2021/01/29 09:06:46;;;;;;;13.95;10.07;;;;;;;;;;4182009;34;20120;-59
2021/01/29 09:09:18;;;;;;;15.40;7.12;;;;;;;;;;4190856;34;20117;-58
2021/01/29 09:11:49;;;;;;;11.20;7.22;;;;;;;;;;4190960;34;20112;-58
2021/01/29 09:14:31;;;;;;;13.27;7.55;;;;;;;;;;4192376;34;20100;-58
2021/01/29 09:17:00;;;;;;;11.90;7.85;;;;;;;;;;4204784;34;20612;-58
2021/01/29 09:19:26;;;;;;;12.88;7.57;;;;;;;;;;4178601;34;20193;-58
2021/01/29 09:22:21;;;;;;;14.10;7.37;;;;;;;;;;4185309;34;20151;-58
2021/01/29 09:24:58;;;;;;;11.77;7.32;;;;;;;;;;4163030;34;20134;-57
2021/01/29 09:27:42;;;;;;;20.25;7.35;;;;;;;;;;4182570;34;20126;-58
2021/01/29 09:30:29;;;;;;;18.27;7.35;;;;;;;;;;4205270;34;20201;-58
2021/01/29 09:32:57;;;;;;;18.40;8.07;;;;;;;;;;4193248;34;20164;-58
2021/01/29 09:35:54;;;;;;;15.82;6.85;;;;;;;;;;4192312;34;20501;-58
2021/01/29 09:38:22;;;;;;;;;;;;;;;;;;4186402;34;20120;-58
2021/01/29 09:41:19;;;;;;;19.30;7.65;;;;;;;;;;4192370;34;19969;-59
2021/01/29 09:43:53;;;;;;;13.32;6.78;;;;;;;;;;4192480;34;20129;-59
2021/01/29 09:46:31;;;;;;;12.25;7.68;;;;;;;;;;4204938;34;20102;-57
2021/01/29 09:49:17;;;;;;;14.00;7.35;;;;;;;;;;4205008;34;20167;-58
2021/01/29 09:52:02;;;;;;;;;;;;;;;;;;4202823;34;20121;-58
2021/01/29 09:54:51;;;;;;;17.98;7.47;;;;;;;;;;4190431;34;20057;-58
2021/01/29 09:57:39;;;;;;;14.45;6.62;;;;;;;;;;4172435;34;20126;-59
2021/01/29 10:00:16;;;;;;;16.08;7.35;;;;;;;;;;4191085;34;20092;-59
2021/01/29 10:02:59;;;;;;;19.17;8.63;;;;;;;;;;4191148;34;20202;-60
2021/01/29 10:05:28;;;;;;;16.67;7.20;;;;;;;;;;4190888;34;20114;-59
2021/01/29 10:08:07;;;;;;;15.13;7.47;;;;;;;;;;4178748;34;20102;-59
2021/01/29 10:10:41;;;;;;;14.68;7.37;;;;;;;;;;4191952;34;20225;-60
2021/01/29 10:13:22;;;;;;;16.27;7.00;;;;;;;;;;4192033;34;20122;-58
2021/01/29 10:16:07;;;;;;;12.52;6.82;;;;;;;;;;4192136;34;20217;-58
2021/01/29 10:18:33;;;;;;;11.93;7.22;;;;;;;;;;4192910;34;20254;-57
2021/01/29 10:21:11;;;;;;;13.25;7.53;;;;;;;;;;4180023;34;20137;-57
2021/01/29 10:23:59;;;;;;;17.08;7.30;;;;;;;;;;4191880;34;20104;-59
2021/01/29 10:26:49;;;;;;;15.30;7.70;;;;;;;;;;4191020;34;20215;-57
2021/01/29 10:29:21;;;;;;;20.45;7.97;;;;;;;;;;4191672;34;20555;-64
2021/01/29 10:32:06;;;;;;;17.30;7.75;;;;;;;;;;4204531;34;20212;-58
2021/01/29 10:34:39;;;;;;;18.35;8.65;;;;;;;;;;4204492;34;20171;-62
2021/01/29 10:37:12;;;;;;;17.98;7.53;;;;;;;;;;4191110;34;20181;-59
2021/01/29 10:40:04;;;;;;;17.35;8.43;;;;;;;;;;4204412;34;20549;-60
2021/01/29 10:42:36;;;;;;;12.77;7.40;;;;;;;;;;4181276;34;20117;-59
2021/01/29 10:45:03;;;;;;;17.95;7.90;;;;;;;;;;4202939;34;20141;-60
2021/01/29 10:47:42;;;;;;;19.42;7.57;;;;;;;;;;4191534;34;20121;-59
2021/01/29 10:50:32;;;;;;;13.85;7.40;;;;;;;;;;4180631;34;20106;-59
2021/01/29 10:53:17;;;;;;;22.02;8.18;;;;;;;;;;4178214;34;20083;-59
2021/01/29 10:55:58;;;;;;;16.87;7.65;;;;;;;;;;4188853;34;20137;-59
2021/01/29 10:58:34;;;;;;;17.73;7.57;;;;;;;;;;4175484;34;20097;-58
2021/01/29 11:01:01;;;;;;;20.98;7.78;;;;;;;;;;4186604;34;20145;-64
2021/01/29 11:03:39;;;;;;;20.50;8.35;;;;;;;;;;4179279;34;20186;-63
2021/01/29 11:06:05;;;;;;;13.55;7.40;;;;;;;;;;4191699;34;20525;-63
2021/01/29 11:08:32;;;;;;;17.25;8.07;;;;;;;;;;4166721;34;20090;-65
2021/01/29 11:11:07;;;;;;;17.08;8.02;;;;;;;;;;4189982;34;20137;-64
2021/01/29 11:13:52;;;;;;;12.35;6.78;;;;;;;;;;4177918;34;20130;-65
2021/01/29 11:16:23;;;;;;;15.73;8.15;;;;;;;;;;4189957;34;20213;-63
2021/01/29 11:19:00;;;;;;;14.07;7.12;;;;;;;;;;4165887;34;20106;-61
2021/01/29 11:21:57;;;;;;;15.05;7.55;;;;;;;;;;4167254;34;20106;-61
2021/01/29 11:24:49;;;;;;;18.45;7.62;;;;;;;;;;4190304;34;20110;-60
2021/01/29 11:27:35;;;;;;;13.73;6.78;;;;;;;;;;4167181;34;20130;-61
2021/01/29 11:30:04;;;;;;;13.80;7.75;;;;;;;;;;4189982;34;20179;-62
2021/01/29 11:32:34;;;;;;;18.60;7.53;;;;;;;;;;4177293;34;20170;-63
2021/01/29 11:35:20;;;;;;;15.73;7.40;;;;;;;;;;4177047;34;20462;-63
2021/01/29 11:37:55;;;;;;;20.33;8.43;;;;;;;;;;4188509;34;20510;-63
2021/01/29 11:40:32;;;;;;;17.52;8.75;;;;;;;;;;4190008;34;20603;-64
2021/01/29 11:43:17;;;;;;;24.30;10.27;;;;;;;;;;4166048;34;20134;-63
2021/01/29 11:45:49;;;;;;;20.42;9.35;;;;;;;;;;4165789;34;20117;-62
2021/01/29 11:48:28;;;;;;;17.23;8.43;;;;;;;;;;4177141;34;20118;-63
2021/01/29 11:51:18;;;;;;;20.25;9.23;;;;;;;;;;4177064;34;20109;-62
2021/01/29 11:53:51;;;;;;;17.85;10.73;;;;;;;;;;4178397;34;20118;-64
2021/01/29 11:56:22;;;;;;;23.67;9.90;;;;;;;;;;4168507;34;20140;-62
2021/01/29 11:59:00;;;;;;;16.55;8.75;;;;;;;;;;4179257;34;20526;-63
2021/01/29 12:01:46;;;;;;;15.82;7.12;;;;;;;;;;4191327;34;20121;-63
2021/01/29 12:04:20;;;;;;;17.58;7.62;;;;;;;;;;4192418;34;20203;-60
2021/01/29 12:06:50;;;;;;;15.05;7.95;;;;;;;;;;4192152;34;20118;-61
2021/01/29 12:09:36;;;;;;;16.10;7.70;;;;;;;;;;4179769;34;20124;-62
2021/01/29 12:12:25;;;;;;;;;;;;;;;;;;4169432;34;20237;-62
2021/01/29 12:15:19;;;;;;;15.35;7.80;;;;;;;;;;4190084;34;19981;-62
2021/01/29 12:17:55;;;;;;;16.70;8.07;;;;;;;;;;4179309;34;20149;-63
2021/01/29 12:20:24;;;;;;;16.48;7.57;;;;;;;;;;4192132;34;20121;-60
2021/01/29 12:23:28;;;;;;;11.73;7.22;;;;;;;;;;4179382;34;20519;-62
2021/01/29 12:26:13;;;;;;;19.37;9.02;;;;;;;;;;4191888;34;20177;-60
2021/01/29 12:28:57;;;;;;;18.90;9.45;;;;;;;;;;4190266;34;20082;-60
2021/01/29 12:31:44;;;;;;;20.92;9.35;;;;;;;;;;4191914;34;20459;-60
2021/01/29 12:34:22;;;;;;;24.50;9.80;;;;;;;;;;4179382;34;20161;-61
2021/01/29 12:36:58;;;;;;;17.55;8.25;;;;;;;;;;4191522;34;20145;-60
2021/01/29 12:39:26;;;;;;;13.98;8.77;;;;;;;;;;4168200;34;20133;-62
2021/01/29 12:42:04;;;;;;;18.77;9.93;;;;;;;;;;4167842;34;20106;-63
2021/01/29 12:44:41;;;;;;;20.73;8.63;;;;;;;;;;4191969;34;20121;-62
2021/01/29 12:47:36;;;;;;;17.65;8.60;;;;;;;;;;4192140;34;20110;-61
2021/01/29 12:50:21;;;;;;;15.43;7.65;;;;;;;;;;4191410;34;20149;-62
2021/01/29 12:52:51;;;;;;;18.65;8.23;;;;;;;;;;4191872;34;20197;-69
2021/01/29 12:55:23;;;;;;;28.50;10.40;;;;;;;;;;4178950;34;20122;-63
2021/01/29 12:58:08;;;;;;;26.98;12.48;;;;;;;;;;4179681;34;20529;-65
2021/01/29 13:00:39;;;;;;;22.95;10.00;;;;;;;;;;4178995;34;20524;-64
2021/01/29 13:03:45;;;;;;;19.73;9.40;;;;;;;;;;4168720;34;20201;-63
2021/01/29 13:06:16;;;;;;;21.83;10.32;;;;;;;;;;4180846;34;20102;-63
2021/01/29 13:08:45;;;;;;;21.50;11.43;;;;;;;;;;4191686;34;20643;-62
2021/01/29 13:11:19;;;;;;;24.37;12.63;;;;;;;;;;4191686;34;20524;-63
2021/01/29 13:14:10;;;;;;;28.85;13.90;;;;;;;;;;4178874;34;20105;-63
2021/01/29 13:17:02;;;;;;;25.23;14.60;;;;;;;;;;4191461;34;20117;-60
2021/01/29 13:19:32;;;;;;;27.98;16.73;;;;;;;;;;4169094;34;20098;-61
2021/01/29 13:21:58;;;;;;;25.75;12.23;;;;;;;;;;4191668;34;20106;-60
2021/01/29 13:24:33;;;;;;;21.17;10.40;;;;;;;;;;4178911;34;20121;-63
2021/01/29 13:27:12;;;;;;;18.58;10.80;;;;;;;;;;4191700;34;20122;-62
2021/01/29 13:29:38;;;;;;;13.95;10.02;;;;;;;;;;4163160;34;20522;-61
2021/01/29 13:32:38;;;;;;;19.05;9.77;;;;;;;;;;4176285;34;20091;-64
2021/01/29 13:35:09;;;;;;;23.02;10.80;;;;;;;;;;4132749;34;20094;-61
2021/01/29 13:37:35;;;;;;;24.67;15.13;;;;;;;;;;4136701;34;20114;-64
2021/01/29 13:40:05;;;;;;;22.15;13.13;;;;;;;;;;4136931;34;20104;-63
2021/01/29 13:42:33;;;;;;;21.42;11.68;;;;;;;;;;4148211;34;20181;-63
2021/01/29 13:45:04;;;;;;;22.92;10.73;;;;;;;;;;4114824;34;20126;-62
2021/01/29 13:47:36;;;;;;;22.25;11.63;;;;;;;;;;4148288;34;20111;-62
2021/01/29 13:50:29;;;;;;;24.67;11.75;;;;;;;;;;4136927;34;20102;-62
2021/01/29 13:52:57;;;;;;;23.98;12.13;;;;;;;;;;4148040;34;20131;-62
2021/01/29 13:55:38;;;;;;;37.25;14.07;;;;;;;;;;4147925;34;20602;-63
2021/01/29 13:58:28;;;;;;;31.73;15.85;;;;;;;;;;4136793;34;20102;-62
2021/01/29 14:01:11;;;;;;;21.40;13.77;;;;;;;;;;4147363;34;20097;-65
2021/01/29 14:03:40;;;;;;;30.50;13.20;;;;;;;;;;4137036;34;20103;-61
2021/01/29 14:06:07;;;;;;;23.70;12.13;;;;;;;;;;4136724;34;20134;-62
2021/01/29 14:08:33;;;;;;;27.27;10.77;;;;;;;;;;4136996;34;20115;-61
2021/01/29 14:11:05;;;;;;;20.40;11.88;;;;;;;;;;4138078;34;20208;-62
2021/01/29 14:13:37;;;;;;;22.08;10.90;;;;;;;;;;4123509;34;20110;-61
2021/01/29 14:16:09;;;;;;;17.05;10.57;;;;;;;;;;4123216;34;20570;-61
2021/01/29 14:19:02;;;;;;;24.15;9.88;;;;;;;;;;4124452;34;20102;-63
2021/01/29 14:22:06;;;;;;;17.62;8.90;;;;;;;;;;4141636;34;20199;-61
2021/01/29 14:24:50;;;;;;;21.62;9.68;;;;;;;;;;4147152;34;20204;-62
2021/01/29 14:27:24;;;;;;;22.27;9.90;;;;;;;;;;4148111;34;20122;-61
2021/01/29 14:30:08;;;;;;;21.23;10.63;;;;;;;;;;4136476;34;20455;-62
2021/01/29 14:32:57;;;;;;;30.88;12.45;;;;;;;;;;4145519;34;20115;-62
2021/01/29 14:35:23;;;;;;;23.25;11.68;;;;;;;;;;4136703;34;20566;-62
2021/01/29 14:38:13;;;;;;;22.55;9.88;;;;;;;;;;4157562;34;20117;-59
2021/01/29 14:41:06;;;;;;;21.20;10.50;;;;;;;;;;4164228;34;20197;-61
2021/01/29 14:43:51;;;;;;;20.67;9.27;;;;;;;;;;4164507;34;20150;-61
2021/01/29 14:46:20;;;;;;;16.50;8.45;;;;;;;;;;4165806;34;20122;-61
2021/01/29 14:49:04;;;;;;;24.70;9.05;;;;;;;;;;4177119;34;20536;-63
2021/01/29 14:51:42;;;;;;;18.50;9.43;;;;;;;;;;4177016;34;20629;-63
2021/01/29 14:54:11;;;;;;;19.77;9.18;;;;;;;;;;4188150;34;20110;-60
2021/01/29 14:56:38;;;;;;;19.37;8.48;;;;;;;;;;4190804;34;20094;-62
2021/01/29 14:59:32;;;;;;;17.23;9.20;;;;;;;;;;4177943;34;20117;-63
2021/01/29 15:02:22;;;;;;;22.42;9.23;;;;;;;;;;4166980;34;20101;-61
2021/01/29 15:04:49;;;;;;;20.83;9.70;;;;;;;;;;4172519;34;20094;-62
2021/01/29 15:07:20;;;;;;;20.05;8.15;;;;;;;;;;4165808;34;20109;-62
2021/01/29 15:09:48;;;;;;;14.80;7.43;;;;;;;;;;4166110;34;20118;-62
2021/01/29 15:12:14;;;;;;;13.05;7.78;;;;;;;;;;4177470;34;20144;-65
2021/01/29 15:14:49;;;;;;;14.35;7.87;;;;;;;;;;4168206;34;20637;-63
2021/01/29 15:17:31;;;;;;;16.33;8.63;;;;;;;;;;4192666;34;20108;-67
2021/01/29 15:20:33;;;;;;;19.20;8.23;;;;;;;;;;4192517;34;20198;-60
2021/01/29 15:23:15;;;;;;;16.85;8.60;;;;;;;;;;4185072;34;20141;-62
2021/01/29 15:25:50;;;;;;;29.50;10.13;;;;;;;;;;4180753;34;20553;-62
2021/01/29 15:28:28;;;;;;;18.77;8.00;;;;;;;;;;4190962;34;20125;-62
2021/01/29 15:30:59;;;;;;;25.88;9.50;;;;;;;;;;4190092;34;20153;-62
2021/01/29 15:33:28;;;;;;;19.20;9.18;;;;;;;;;;4177401;34;20118;-60
2021/01/29 15:36:12;;;;;;;25.77;11.68;;;;;;;;;;4189974;34;20197;-63
2021/01/29 15:39:01;;;;;;;22.98;10.55;;;;;;;;;;4190370;34;20102;-61
2021/01/29 15:41:39;;;;;;;30.37;12.07;;;;;;;;;;4183209;34;20132;-61
2021/01/29 15:44:06;;;;;;;22.15;12.55;;;;;;;;;;4191982;34;20098;-62
2021/01/29 15:46:59;;;;;;;27.65;12.37;;;;;;;;;;4192516;34;20132;-62